Time;durP1;ratioP1;P1;durP2;ratioP2;P2;SDS_P1;SDS_P2;PMS_P1;PMS_P2;Temp;Humidity;BMP_temperature;BMP_pressure;BME280_temperature;BME280_humidity;BME280_pressure;Samples;Min_cycle;Max_cycle;Signal;HPM_P1;HPM_P2
2022/09/14 00:01:11;;;;;;;1.50;1.40;;;23.10;55.40;;;;;;5005436;28;20233;-73
2022/09/14 00:03:38;;;;;;;1.58;1.42;;;23.10;55.40;;;;;;4999721;28;20295;-72
2022/09/14 00:06:08;;;;;;;1.50;1.40;;;23.10;55.40;;;;;;4998772;28;20228;-72
2022/09/14 00:08:35;;;;;;;1.52;1.42;;;23.10;55.40;;;;;;4998742;28;20201;-72
2022/09/14 00:11:04;;;;;;;1.65;1.55;;;23.10;55.40;;;;;;4999308;28;20594;-72
2022/09/14 00:13:31;;;;;;;1.63;1.52;;;23.10;55.50;;;;;;4999358;28;20199;-73
2022/09/14 00:16:02;;;;;;;1.50;1.40;;;23.10;55.50;;;;;;4982746;28;20205;-71
2022/09/14 00:18:30;;;;;;;2.15;1.50;;;23.10;55.60;;;;;;4999114;28;20207;-72
2022/09/14 00:20:59;;;;;;;1.55;1.45;;;23.10;55.50;;;;;;4998577;28;20216;-73
2022/09/14 00:23:28;;;;;;;1.40;1.30;;;23.00;55.50;;;;;;4998279;28;20687;-73
2022/09/14 00:25:55;;;;;;;1.17;1.17;;;23.10;55.60;;;;;;4998385;28;20201;-73
2022/09/14 00:28:22;;;;;;;1.48;1.42;;;23.00;55.50;;;;;;4998101;28;20231;-71
2022/09/14 00:30:49;;;;;;;1.48;1.38;;;23.00;55.50;;;;;;4998002;28;20217;-72
2022/09/14 00:33:16;;;;;;;1.50;1.40;;;23.10;55.70;;;;;;4998239;28;20196;-73
2022/09/14 00:35:43;;;;;;;1.50;1.35;;;23.00;55.60;;;;;;4998109;28;20224;-72
2022/09/14 00:38:10;;;;;;;1.55;1.45;;;23.00;55.50;;;;;;4998195;28;20289;-71
2022/09/14 00:40:39;;;;;;;1.52;1.42;;;23.00;56.20;;;;;;4981829;28;20695;-72
2022/09/14 00:43:06;;;;;;;2.22;1.40;;;23.00;55.60;;;;;;5014878;28;20703;-71
2022/09/14 00:45:33;;;;;;;1.52;1.42;;;23.00;55.70;;;;;;4997089;28;20228;-73
2022/09/14 00:48:00;;;;;;;1.52;1.42;;;23.00;55.60;;;;;;4997806;28;20204;-73
2022/09/14 00:50:27;;;;;;;1.38;1.27;;;23.10;55.70;;;;;;4997748;28;20271;-73
2022/09/14 00:52:55;;;;;;;1.48;1.38;;;23.00;55.60;;;;;;4997828;28;20671;-72
2022/09/14 00:55:22;;;;;;;1.35;1.25;;;23.00;55.70;;;;;;5015245;28;20270;-72
2022/09/14 00:57:52;;;;;;;1.73;1.63;;;23.00;55.60;;;;;;5015741;28;20189;-72
2022/09/14 01:00:22;;;;;;;1.90;1.40;;;23.00;55.70;;;;;;5004118;28;20232;-71
2022/09/14 01:02:50;;;;;;;2.25;1.60;;;23.00;56.30;;;;;;5018561;28;20228;-73
2022/09/14 01:05:19;;;;;;;1.52;1.42;;;23.00;55.70;;;;;;5035512;28;20298;-72
2022/09/14 01:08:09;;;;;;;1.23;1.13;;;23.00;55.70;;;;;;5017539;28;20651;-72
2022/09/14 01:10:46;;;;;;;1.45;1.33;;;23.00;55.70;;;;;;5035115;28;20559;-72
2022/09/14 01:13:22;;;;;;;1.40;1.30;;;23.00;55.70;;;;;;5017039;28;20287;-72
2022/09/14 01:15:55;;;;;;;1.40;1.30;;;23.00;55.70;;;;;;5034730;28;20623;-71
2022/09/14 01:18:24;;;;;;;1.40;1.30;;;23.00;55.70;;;;;;5017034;28;20200;-73
2022/09/14 01:20:53;;;;;;;2.15;1.50;;;23.00;55.80;;;;;;5016899;28;20223;-72
2022/09/14 01:23:24;;;;;;;1.55;1.33;;;23.00;55.80;;;;;;5034843;28;20191;-72
2022/09/14 01:26:00;;;;;;;1.63;1.38;;;23.00;55.80;;;;;;5034750;28;20184;-73
2022/09/14 01:28:30;;;;;;;1.98;1.60;;;23.00;55.90;;;;;;5016732;28;20204;-72
2022/09/14 01:30:58;;;;;;;1.60;1.50;;;23.00;55.90;;;;;;5017598;28;20220;-72
2022/09/14 01:33:27;;;;;;;1.33;1.23;;;23.00;55.80;;;;;;5000536;28;20200;-73
2022/09/14 01:35:57;;;;;;;1.42;1.33;;;23.00;55.90;;;;;;5016935;28;20277;-72
2022/09/14 01:38:26;;;;;;;1.42;1.33;;;23.00;55.80;;;;;;5000510;28;20258;-72
2022/09/14 01:40:53;;;;;;;1.45;1.30;;;23.00;55.80;;;;;;5016659;28;20590;-73
2022/09/14 01:43:22;;;;;;;1.48;1.38;;;23.00;55.80;;;;;;5016520;28;20254;-71
2022/09/14 01:45:52;;;;;;;1.42;1.30;;;23.00;55.90;;;;;;5016415;28;20588;-73
2022/09/14 01:48:21;;;;;;;1.40;1.30;;;23.00;55.90;;;;;;5034279;28;20265;-72
2022/09/14 01:50:50;;;;;;;1.80;1.40;;;23.00;55.90;;;;;;5016422;28;20220;-72
2022/09/14 01:53:20;;;;;;;1.50;1.30;;;23.00;55.90;;;;;;5033965;28;20199;-72
2022/09/14 01:55:50;;;;;;;2.47;1.35;;;23.00;55.90;;;;;;5017326;28;20635;-71
2022/09/14 01:58:20;;;;;;;1.35;1.25;;;23.00;55.90;;;;;;5016566;28;20672;-72
2022/09/14 02:00:48;;;;;;;1.40;1.30;;;23.00;55.90;;;;;;5017277;28;20651;-72
2022/09/14 02:03:18;;;;;;;1.38;1.27;;;23.00;55.90;;;;;;5034261;28;20187;-71
2022/09/14 02:05:48;;;;;;;1.42;1.33;;;23.00;55.90;;;;;;5016238;28;20234;-72
2022/09/14 02:08:15;;;;;;;1.20;1.20;;;23.00;55.90;;;;;;5016201;28;20299;-73
2022/09/14 02:10:42;;;;;;;1.30;1.30;;;22.90;55.90;;;;;;5016421;28;20219;-71
2022/09/14 02:13:09;;;;;;;1.90;1.30;;;23.00;56.00;;;;;;5016082;28;20287;-71
2022/09/14 02:15:36;;;;;;;1.60;1.50;;;22.90;55.90;;;;;;5015232;28;20192;-71
2022/09/14 02:18:03;;;;;;;1.60;1.50;;;23.00;56.00;;;;;;5033667;28;20199;-71
2022/09/14 02:20:33;;;;;;;1.42;1.33;;;22.90;56.00;;;;;;5015807;28;20216;-72
2022/09/14 02:23:00;;;;;;;1.90;1.40;;;22.90;56.10;;;;;;5015952;28;20207;-72
2022/09/14 02:25:27;;;;;;;1.60;1.50;;;22.90;56.00;;;;;;5033832;28;20627;-71
2022/09/14 02:27:54;;;;;;;1.40;1.30;;;22.90;56.00;;;;;;5033616;28;20557;-72
2022/09/14 02:30:21;;;;;;;2.15;1.40;;;22.90;56.10;;;;;;5033802;28;20208;-71
2022/09/14 02:32:55;;;;;;;1.23;1.17;;;22.90;56.10;;;;;;5015944;28;20207;-73
2022/09/14 02:35:25;;;;;;;1.92;1.48;;;22.90;56.10;;;;;;5017238;28;20199;-71
2022/09/14 02:37:57;;;;;;;1.90;1.60;;;23.00;56.20;;;;;;5015983;28;20200;-72
2022/09/14 02:40:29;;;;;;;1.65;1.50;;;22.90;56.20;;;;;;5016015;28;20569;-71
2022/09/14 02:43:01;;;;;;;1.50;1.40;;;22.90;56.10;;;;;;5016874;28;20195;-72
2022/09/14 02:45:30;;;;;;;2.50;1.42;;;22.90;56.20;;;;;;5016144;28;20235;-71
2022/09/14 02:48:01;;;;;;;2.20;1.60;;;22.90;56.20;;;;;;5033938;28;20223;-72
2022/09/14 02:50:30;;;;;;;1.50;1.40;;;22.90;56.20;;;;;;5016365;28;20227;-71
2022/09/14 02:53:05;;;;;;;1.95;1.30;;;23.00;56.20;;;;;;5033360;28;20198;-71
2022/09/14 02:55:34;;;;;;;1.45;1.35;;;22.90;56.20;;;;;;5016357;28;20188;-71
2022/09/14 02:58:03;;;;;;;2.53;1.55;;;22.90;56.30;;;;;;5015747;28;20196;-72
2022/09/14 03:00:31;;;;;;;1.77;1.60;;;22.90;56.20;;;;;;5015433;28;20278;-72
2022/09/14 03:02:58;;;;;;;1.98;1.35;;;22.90;56.30;;;;;;5015869;28;20211;-73
2022/09/14 03:05:25;;;;;;;2.45;1.40;;;22.90;56.30;;;;;;5015486;28;20208;-71
2022/09/14 03:07:52;;;;;;;2.60;1.60;;;22.90;56.40;;;;;;5015689;28;20196;-71
2022/09/14 03:10:20;;;;;;;1.80;1.70;;;22.90;56.50;;;;;;5019152;28;20224;-72
2022/09/14 03:12:47;;;;;;;1.77;1.65;;;22.90;56.60;;;;;;5019552;28;20618;-73
2022/09/14 03:15:13;;;;;;;1.55;1.45;;;22.90;56.60;;;;;;5019207;28;20196;-71
2022/09/14 03:17:45;;;;;;;2.47;1.52;;;22.90;56.60;;;;;;5036936;28;20215;-71
2022/09/14 03:20:13;;;;;;;1.73;1.55;;;22.90;56.50;;;;;;5036868;28;20302;-72
2022/09/14 03:22:40;;;;;;;2.67;1.50;;;23.00;56.60;;;;;;5015083;28;20223;-71
2022/09/14 03:25:07;;;;;;;1.95;1.40;;;23.00;56.40;;;;;;4999177;28;20217;-71
2022/09/14 03:27:36;;;;;;;1.75;1.60;;;23.00;56.40;;;;;;4999295;28;20243;-72
2022/09/14 03:30:03;;;;;;;2.75;1.60;;;23.10;56.40;;;;;;4999282;28;20586;-72
2022/09/14 03:32:30;;;;;;;2.08;1.70;;;23.10;56.30;;;;;;5015302;28;20287;-72
2022/09/14 03:34:57;;;;;;;2.03;1.70;;;23.10;56.10;;;;;;5016772;28;20276;-72
2022/09/14 03:37:24;;;;;;;1.85;1.67;;;23.20;56.10;;;;;;4998912;28;20196;-71
2022/09/14 03:39:51;;;;;;;2.40;1.70;;;23.20;56.00;;;;;;4999107;28;20287;-72
2022/09/14 03:42:18;;;;;;;2.55;1.77;;;23.30;56.00;;;;;;5015325;28;20200;-72
2022/09/14 03:44:47;;;;;;;1.60;1.50;;;23.30;55.90;;;;;;4998933;28;20216;-72
2022/09/14 03:47:13;;;;;;;2.65;1.60;;;23.30;55.90;;;;;;4999016;28;20606;-73
2022/09/14 03:49:41;;;;;;;3.17;1.73;;;23.30;55.70;;;;;;4999431;28;20205;-72
2022/09/14 03:52:08;;;;;;;2.45;1.70;;;23.30;55.80;;;;;;5016445;28;20189;-71
2022/09/14 03:54:35;;;;;;;2.00;1.63;;;23.30;55.80;;;;;;5015232;28;20233;-72
2022/09/14 03:57:03;;;;;;;2.05;1.48;;;23.30;55.70;;;;;;5016345;28;20207;-71
2022/09/14 03:59:30;;;;;;;1.50;1.40;;;23.40;55.80;;;;;;5016537;28;20231;-71
2022/09/14 04:01:59;;;;;;;2.30;1.60;;;23.40;55.70;;;;;;4998749;28;20266;-72
2022/09/14 04:04:26;;;;;;;2.05;1.58;;;23.40;55.70;;;;;;5015079;28;20201;-74
2022/09/14 04:06:52;;;;;;;2.88;1.80;;;23.40;55.70;;;;;;5015070;28;20776;-73
2022/09/14 04:09:19;;;;;;;2.25;1.70;;;23.40;55.90;;;;;;4998868;28;20201;-71
2022/09/14 04:11:46;;;;;;;2.17;1.70;;;23.40;55.90;;;;;;4998530;28;20224;-73
2022/09/14 04:14:14;;;;;;;1.83;1.50;;;23.30;55.70;;;;;;4999438;28;20287;-73
2022/09/14 04:16:42;;;;;;;3.90;1.98;;;23.40;55.80;;;;;;5016453;28;20527;-74
2022/09/14 04:19:10;;;;;;;2.50;1.77;;;23.40;55.80;;;;;;5015934;28;20697;-73
2022/09/14 04:21:37;;;;;;;2.28;1.60;;;23.40;55.80;;;;;;5013991;28;20699;-73
2022/09/14 04:24:05;;;;;;;1.65;1.42;;;23.40;55.90;;;;;;5015295;28;20192;-73
2022/09/14 04:26:32;;;;;;;1.92;1.75;;;23.30;55.70;;;;;;5000373;28;20240;-74
2022/09/14 04:28:59;;;;;;;3.15;1.50;;;23.40;55.80;;;;;;4998509;28;20207;-75
2022/09/14 04:31:26;;;;;;;2.17;1.60;;;23.40;55.90;;;;;;4998912;28;20271;-75
2022/09/14 04:33:55;;;;;;;1.77;1.60;;;23.40;55.90;;;;;;4998331;28;20255;-74
2022/09/14 04:36:26;;;;;;;2.05;1.58;;;23.40;55.90;;;;;;4998148;28;20200;-74
2022/09/14 04:38:54;;;;;;;2.42;1.83;;;23.40;55.90;;;;;;4999214;28;20208;-71
2022/09/14 04:41:21;;;;;;;2.42;1.98;;;23.40;56.20;;;;;;4998074;28;20213;-71
2022/09/14 04:43:49;;;;;;;3.03;2.08;;;23.40;57.00;;;;;;5013544;28;20459;-72
2022/09/14 04:46:17;;;;;;;2.70;1.83;;;23.40;57.50;;;;;;5004529;28;20226;-73
2022/09/14 04:48:44;;;;;;;2.92;1.88;;;23.40;57.60;;;;;;5007631;28;20259;-73
2022/09/14 04:51:13;;;;;;;5.05;2.00;;;23.40;58.10;;;;;;5015335;28;20558;-73
2022/09/14 04:53:41;;;;;;;3.63;2.42;;;23.40;58.30;;;;;;5014243;28;20259;-72
2022/09/14 04:56:09;;;;;;;2.90;2.10;;;23.40;58.80;;;;;;5002600;28;20570;-73
2022/09/14 04:58:38;;;;;;;2.08;1.80;;;23.40;59.00;;;;;;5018230;28;20200;-74
2022/09/14 05:01:07;;;;;;;2.65;2.10;;;23.40;58.80;;;;;;5004842;28;20321;-72
2022/09/14 05:03:34;;;;;;;3.08;2.10;;;23.40;59.00;;;;;;5015325;28;20200;-73
2022/09/14 05:06:02;;;;;;;5.25;2.40;;;23.40;59.00;;;;;;4997429;28;20691;-73
2022/09/14 05:08:28;;;;;;;2.38;2.15;;;23.40;59.40;;;;;;4982040;28;20224;-72
2022/09/14 05:10:57;;;;;;;3.00;2.30;;;23.40;59.20;;;;;;5015199;28;20215;-73
2022/09/14 05:13:24;;;;;;;5.20;2.25;;;23.40;59.40;;;;;;4997673;28;20204;-73
2022/09/14 05:15:51;;;;;;;2.13;1.75;;;23.40;59.40;;;;;;5015378;28;20189;-72
2022/09/14 05:18:18;;;;;;;2.72;2.25;;;23.40;59.20;;;;;;4997510;28;20255;-72
2022/09/14 05:20:45;;;;;;;4.80;2.22;;;23.40;59.70;;;;;;4997985;28;20243;-73
2022/09/14 05:23:12;;;;;;;3.33;2.42;;;23.40;59.80;;;;;;4998337;28;20201;-74
2022/09/14 05:25:39;;;;;;;2.92;2.28;;;23.40;59.90;;;;;;4997945;28;20286;-72
2022/09/14 05:28:08;;;;;;;2.70;2.17;;;23.40;59.80;;;;;;4999570;28;20534;-73
2022/09/14 05:30:39;;;;;;;2.33;2.10;;;23.40;59.80;;;;;;4998588;28;20311;-73
2022/09/14 05:33:06;;;;;;;2.47;2.10;;;23.40;59.90;;;;;;4997294;28;20601;-73
2022/09/14 05:35:33;;;;;;;3.95;2.50;;;23.40;59.90;;;;;;4998009;28;20205;-73
2022/09/14 05:38:00;;;;;;;4.10;2.28;;;23.30;59.80;;;;;;4997200;28;20196;-73
2022/09/14 05:40:27;;;;;;;3.05;2.20;;;23.30;59.70;;;;;;4996941;28;20230;-72
2022/09/14 05:42:54;;;;;;;5.15;2.30;;;23.30;59.80;;;;;;4997025;28;20204;-73
2022/09/14 05:45:22;;;;;;;5.60;1.90;;;23.30;59.60;;;;;;4996896;28;20221;-74
2022/09/14 05:47:49;;;;;;;4.88;2.00;;;23.30;59.00;;;;;;4997039;28;20199;-73
2022/09/14 05:50:16;;;;;;;3.83;2.00;;;23.30;58.90;;;;;;4996650;28;20702;-73
2022/09/14 05:52:44;;;;;;;3.55;1.70;;;23.30;59.00;;;;;;4996842;28;20577;-74
2022/09/14 05:55:11;;;;;;;4.40;1.90;;;23.30;59.00;;;;;;4996959;28;20197;-73
2022/09/14 05:57:37;;;;;;;4.45;2.10;;;23.20;58.90;;;;;;4997350;28;20581;-73
2022/09/14 06:00:05;;;;;;;4.30;1.70;;;23.20;58.90;;;;;;4996584;28;20596;-72
2022/09/14 06:02:40;;;;;;;2.13;1.85;;;23.30;58.90;;;;;;5014369;28;20610;-73
2022/09/14 06:05:07;;;;;;;3.17;2.05;;;23.30;58.90;;;;;;4996522;28;20212;-73
2022/09/14 06:07:34;;;;;;;2.47;2.00;;;23.30;58.90;;;;;;4996473;28;20287;-73
2022/09/14 06:10:02;;;;;;;2.80;1.95;;;23.30;58.90;;;;;;5014057;28;20271;-73
2022/09/14 06:12:28;;;;;;;3.13;1.90;;;23.30;58.70;;;;;;4996534;28;20702;-74
2022/09/14 06:14:56;;;;;;;2.08;1.88;;;23.40;58.70;;;;;;4996442;28;20196;-72
2022/09/14 06:17:23;;;;;;;2.67;1.90;;;23.40;58.60;;;;;;4996540;28;20201;-73
2022/09/14 06:19:51;;;;;;;3.28;1.95;;;23.40;58.40;;;;;;4996542;28;20204;-73
2022/09/14 06:22:17;;;;;;;3.35;1.90;;;23.50;58.30;;;;;;4996864;28;20192;-72
2022/09/14 06:24:45;;;;;;;2.20;1.70;;;23.60;58.20;;;;;;4996861;28;20205;-72
2022/09/14 06:27:12;;;;;;;1.80;1.70;;;23.70;58.10;;;;;;5014626;28;20301;-73
2022/09/14 06:29:39;;;;;;;3.22;1.73;;;23.70;58.00;;;;;;4997096;28;20224;-72
2022/09/14 06:32:06;;;;;;;3.22;2.05;;;23.70;57.90;;;;;;4996432;28;20574;-72
2022/09/14 06:34:33;;;;;;;3.30;2.00;;;23.70;57.90;;;;;;4996332;28;20292;-73
2022/09/14 06:37:01;;;;;;;2.60;1.67;;;23.80;57.80;;;;;;4996943;28;20193;-72
2022/09/14 06:39:28;;;;;;;2.75;2.00;;;23.80;57.60;;;;;;4996434;28;20709;-72
2022/09/14 06:41:56;;;;;;;3.08;1.90;;;23.80;57.80;;;;;;4996491;28;20192;-73
2022/09/14 06:44:27;;;;;;;2.45;1.92;;;23.80;57.70;;;;;;4999061;28;20296;-72
2022/09/14 06:46:54;;;;;;;2.20;1.90;;;23.80;57.70;;;;;;4983916;28;20227;-73
2022/09/14 06:49:22;;;;;;;3.38;2.08;;;23.80;57.60;;;;;;5000096;28;20287;-73
2022/09/14 06:51:49;;;;;;;2.00;1.80;;;23.80;57.60;;;;;;5000677;28;20247;-73
2022/09/14 06:54:19;;;;;;;1.70;1.60;;;23.90;57.70;;;;;;5000238;28;20200;-73
2022/09/14 06:56:46;;;;;;;2.00;1.80;;;23.90;57.60;;;;;;5000019;28;20227;-73
2022/09/14 06:59:14;;;;;;;2.83;2.03;;;23.90;57.70;;;;;;5017428;28;20196;-73
2022/09/14 07:01:41;;;;;;;2.28;1.77;;;23.90;57.70;;;;;;4999777;28;20231;-74
2022/09/14 07:04:08;;;;;;;2.92;1.88;;;23.90;57.60;;;;;;5017309;28;20192;-72
2022/09/14 07:06:39;;;;;;;2.55;2.05;;;23.90;58.30;;;;;;4999637;28;20227;-72
2022/09/14 07:09:06;;;;;;;1.90;1.70;;;24.00;57.70;;;;;;4999654;28;20628;-73
2022/09/14 07:11:34;;;;;;;3.05;1.80;;;23.90;57.60;;;;;;4983336;28;20308;-73
2022/09/14 07:14:01;;;;;;;2.10;1.90;;;23.90;57.60;;;;;;4999466;28;20208;-73
2022/09/14 07:16:28;;;;;;;2.65;1.80;;;24.00;57.60;;;;;;5017080;28;20195;-73
2022/09/14 07:18:55;;;;;;;3.13;1.90;;;24.00;57.50;;;;;;4999414;28;20235;-74
2022/09/14 07:21:22;;;;;;;2.67;1.73;;;24.00;57.30;;;;;;5016940;28;20274;-72
2022/09/14 07:23:49;;;;;;;2.85;1.90;;;24.10;57.40;;;;;;4999429;28;20291;-72
2022/09/14 07:26:17;;;;;;;1.85;1.75;;;24.20;57.20;;;;;;4999313;28;20216;-74
2022/09/14 07:28:47;;;;;;;1.92;1.75;;;24.30;56.80;;;;;;4999311;28;20204;-74
2022/09/14 07:31:16;;;;;;;3.17;1.70;;;24.40;56.60;;;;;;4999268;28;20643;-74
2022/09/14 07:33:42;;;;;;;2.50;1.85;;;24.50;57.10;;;;;;4999221;28;20207;-75
2022/09/14 07:36:11;;;;;;;2.00;1.80;;;24.50;56.40;;;;;;5000324;28;20197;-73
2022/09/14 07:38:38;;;;;;;2.35;1.70;;;24.50;56.40;;;;;;4999080;28;20672;-74
2022/09/14 07:41:05;;;;;;;3.15;1.60;;;24.50;56.10;;;;;;5000207;28;20283;-73
2022/09/14 07:43:32;;;;;;;2.97;1.85;;;24.60;56.00;;;;;;4999239;28;20291;-73
2022/09/14 07:46:03;;;;;;;2.00;1.80;;;24.70;56.00;;;;;;4999312;28;20311;-72
2022/09/14 07:48:30;;;;;;;4.35;1.75;;;24.80;56.10;;;;;;4999082;28;20569;-72
2022/09/14 07:51:00;;;;;;;2.15;1.58;;;24.90;55.70;;;;;;4999225;28;20251;-73
2022/09/14 07:53:27;;;;;;;3.22;1.70;;;25.00;55.20;;;;;;5016451;28;20600;-74
2022/09/14 07:55:54;;;;;;;2.03;1.70;;;25.10;54.80;;;;;;4998561;28;20201;-74
2022/09/14 07:58:21;;;;;;;1.70;1.60;;;25.20;54.90;;;;;;4998838;28;20201;-74
2022/09/14 08:00:48;;;;;;;1.60;1.50;;;25.30;54.30;;;;;;4998582;28;20224;-73
2022/09/14 08:03:17;;;;;;;3.08;1.70;;;25.40;54.10;;;;;;5016593;28;20204;-73
2022/09/14 08:05:44;;;;;;;1.77;1.67;;;25.60;53.70;;;;;;5016388;28;20200;-73
2022/09/14 08:08:11;;;;;;;2.22;1.80;;;25.60;53.40;;;;;;5016439;28;20283;-73
2022/09/14 08:10:38;;;;;;;2.45;1.70;;;25.80;53.10;;;;;;5016524;28;20216;-73
2022/09/14 08:13:05;;;;;;;1.83;1.60;;;25.90;52.90;;;;;;5016263;28;20296;-73
2022/09/14 08:15:32;;;;;;;2.70;1.77;;;25.90;52.50;;;;;;5016310;28;20199;-74
2022/09/14 08:17:59;;;;;;;2.72;1.70;;;26.00;52.30;;;;;;5016492;28;20247;-73
2022/09/14 08:20:28;;;;;;;2.17;1.63;;;26.00;52.50;;;;;;5016794;28;20251;-72
2022/09/14 08:22:54;;;;;;;2.85;1.60;;;26.00;52.20;;;;;;5017584;28;20200;-73
2022/09/14 08:25:21;;;;;;;1.70;1.60;;;26.10;52.40;;;;;;5016508;28;20231;-73
2022/09/14 08:27:48;;;;;;;2.85;1.85;;;26.00;52.10;;;;;;5016066;28;20307;-74
2022/09/14 08:30:15;;;;;;;2.35;1.48;;;26.00;52.50;;;;;;5016136;28;20315;-73
2022/09/14 08:32:42;;;;;;;1.60;1.50;;;25.90;52.80;;;;;;5016102;28;20192;-74
2022/09/14 08:35:10;;;;;;;2.50;1.70;;;25.80;52.80;;;;;;5016286;28;20648;-73
2022/09/14 08:37:38;;;;;;;1.70;1.60;;;25.70;53.10;;;;;;5016018;28;20200;-73
2022/09/14 08:40:05;;;;;;;1.70;1.60;;;25.60;53.20;;;;;;5027285;28;20227;-73
2022/09/14 08:42:32;;;;;;;1.67;1.50;;;25.50;53.40;;;;;;5017784;28;20524;-75
2022/09/14 08:45:01;;;;;;;1.70;1.60;;;25.50;53.60;;;;;;5016122;28;20197;-73
2022/09/14 08:47:31;;;;;;;2.17;1.70;;;25.60;54.20;;;;;;5015498;28;20267;-73
2022/09/14 08:50:01;;;;;;;2.85;1.83;;;25.60;53.80;;;;;;5015712;28;20315;-73
2022/09/14 08:52:29;;;;;;;1.70;1.60;;;25.60;54.20;;;;;;5016113;28;20189;-74
2022/09/14 08:54:57;;;;;;;3.60;1.75;;;25.60;53.80;;;;;;5015539;28;20244;-74
2022/09/14 08:57:34;;;;;;;2.00;1.80;;;25.70;53.70;;;;;;5015779;28;20189;-74
2022/09/14 09:00:06;;;;;;;1.80;1.70;;;25.70;53.60;;;;;;5019048;28;20398;-73
2022/09/14 09:02:43;;;;;;;2.33;1.55;;;25.80;53.30;;;;;;5035701;28;20251;-72
2022/09/14 09:05:23;;;;;;;2.22;1.77;;;25.80;53.00;;;;;;5035463;28;20187;-74
2022/09/14 09:07:54;;;;;;;2.15;1.85;;;25.90;52.70;;;;;;5035219;28;20211;-74
2022/09/14 09:10:22;;;;;;;1.88;1.60;;;26.00;52.70;;;;;;5035417;28;20342;-74
2022/09/14 09:12:52;;;;;;;1.77;1.67;;;26.10;52.70;;;;;;5034988;28;20195;-74
2022/09/14 09:15:20;;;;;;;1.58;1.48;;;26.20;52.70;;;;;;5035046;28;20200;-73
2022/09/14 09:17:49;;;;;;;1.80;1.70;;;26.30;52.50;;;;;;5035073;28;20179;-74
2022/09/14 09:20:18;;;;;;;2.05;1.70;;;26.40;52.30;;;;;;5034507;28;20250;-73
2022/09/14 09:22:46;;;;;;;1.92;1.52;;;26.60;52.00;;;;;;5034839;28;20196;-73
2022/09/14 09:25:17;;;;;;;1.67;1.58;;;26.60;52.10;;;;;;5034872;28;20199;-73
2022/09/14 09:27:46;;;;;;;1.88;1.70;;;26.70;51.10;;;;;;5034503;28;20202;-74
2022/09/14 09:30:14;;;;;;;1.73;1.48;;;26.80;50.80;;;;;;5034669;28;20218;-73
2022/09/14 09:32:41;;;;;;;2.20;1.90;;;26.90;50.90;;;;;;5016832;28;20191;-73
2022/09/14 09:35:24;;;;;;;1.52;1.42;;;27.00;51.00;;;;;;5016756;28;20571;-73
2022/09/14 09:38:11;;;;;;;1.70;1.60;;;27.10;51.10;;;;;;5016787;28;20565;-72
2022/09/14 09:40:40;;;;;;;2.30;1.88;;;27.10;50.60;;;;;;5016708;28;20273;-73
2022/09/14 09:43:09;;;;;;;1.77;1.63;;;27.20;50.80;;;;;;5034413;28;20188;-73
2022/09/14 09:45:47;;;;;;;1.50;1.40;;;27.20;50.50;;;;;;5017211;28;20199;-74
2022/09/14 09:48:14;;;;;;;2.10;1.60;;;27.20;50.80;;;;;;5018795;28;20219;-73
2022/09/14 09:50:47;;;;;;;1.55;1.45;;;27.20;49.90;;;;;;5034524;28;20266;-73
2022/09/14 09:53:16;;;;;;;1.70;1.60;;;27.20;49.90;;;;;;5016573;28;20725;-73
2022/09/14 09:55:46;;;;;;;1.70;1.50;;;27.30;50.40;;;;;;5016454;28;20195;-73
2022/09/14 09:58:32;;;;;;;1.80;1.70;;;27.30;50.70;;;;;;5017347;28;20196;-73
2022/09/14 10:01:00;;;;;;;1.98;1.60;;;27.30;50.80;;;;;;5005113;28;20232;-73
2022/09/14 10:03:30;;;;;;;1.60;1.50;;;27.30;50.40;;;;;;4997628;28;20200;-73
2022/09/14 10:06:02;;;;;;;1.55;1.40;;;27.20;50.00;;;;;;4996797;28;20214;-73
2022/09/14 10:08:33;;;;;;;2.05;1.50;;;27.20;49.90;;;;;;4996635;28;20236;-73
2022/09/14 10:11:00;;;;;;;2.40;1.73;;;27.10;50.50;;;;;;4996724;28;20228;-74
2022/09/14 10:13:30;;;;;;;1.95;1.73;;;27.10;51.00;;;;;;4996864;28;20594;-73
2022/09/14 10:16:08;;;;;;;1.60;1.50;;;27.10;51.00;;;;;;4996431;28;20204;-73
2022/09/14 10:18:35;;;;;;;1.73;1.63;;;27.10;50.30;;;;;;4996544;28;20188;-73
2022/09/14 10:21:07;;;;;;;1.60;1.50;;;27.10;50.20;;;;;;4996298;28;20216;-73
2022/09/14 10:23:36;;;;;;;1.60;1.50;;;27.00;50.40;;;;;;4996413;28;20673;-72
2022/09/14 10:26:26;;;;;;;1.83;1.52;;;27.00;50.60;;;;;;5013894;28;20223;-74
2022/09/14 10:28:55;;;;;;;1.98;1.80;;;26.90;50.50;;;;;;4996381;28;20625;-75
2022/09/14 10:31:26;;;;;;;2.95;1.80;;;26.90;50.50;;;;;;4995101;28;20219;-73
2022/09/14 10:33:54;;;;;;;1.73;1.50;;;26.80;50.60;;;;;;5014109;28;20200;-74
2022/09/14 10:36:24;;;;;;;2.38;1.90;;;26.80;50.90;;;;;;4996277;28;20273;-73
2022/09/14 10:38:57;;;;;;;1.90;1.70;;;26.70;50.80;;;;;;4997073;28;20254;-73
2022/09/14 10:41:29;;;;;;;1.70;1.60;;;26.70;50.80;;;;;;4996259;28;20706;-72
2022/09/14 10:44:26;;;;;;;1.52;1.40;;;26.70;50.80;;;;;;4996286;28;20204;-73
2022/09/14 10:47:02;;;;;;;1.73;1.48;;;26.60;50.80;;;;;;4996190;28;20212;-73
2022/09/14 10:49:39;;;;;;;1.60;1.50;;;26.60;51.00;;;;;;4996369;28;20610;-73
2022/09/14 10:52:13;;;;;;;1.70;1.60;;;26.60;51.00;;;;;;4997987;28;20204;-73
2022/09/14 10:54:52;;;;;;;1.98;1.45;;;26.50;51.10;;;;;;5013900;28;20184;-74
2022/09/14 10:57:22;;;;;;;2.17;1.45;;;26.50;51.10;;;;;;4997268;28;20192;-73
2022/09/14 10:59:53;;;;;;;2.35;1.52;;;26.50;51.20;;;;;;4997971;28;20204;-73
2022/09/14 11:03:01;;;;;;;1.52;1.42;;;26.40;51.20;;;;;;5016658;28;20203;-73
2022/09/14 11:05:30;;;;;;;2.00;1.50;;;26.40;51.30;;;;;;5015694;28;20226;-74
2022/09/14 11:08:10;;;;;;;2.25;1.50;;;26.40;51.30;;;;;;5015654;28;20274;-73
2022/09/14 11:10:41;;;;;;;1.50;1.40;;;26.40;51.40;;;;;;5015477;28;20332;-74
2022/09/14 11:13:35;;;;;;;1.70;1.60;;;26.30;51.40;;;;;;5015581;28;20192;-74
2022/09/14 11:16:11;;;;;;;1.40;1.25;;;26.30;51.40;;;;;;5013734;28;20200;-73
2022/09/14 11:18:43;;;;;;;3.20;1.60;;;26.30;51.40;;;;;;5016033;28;20219;-74
2022/09/14 11:21:16;;;;;;;2.40;1.58;;;26.30;51.60;;;;;;5015572;28;20254;-72
2022/09/14 11:23:47;;;;;;;1.67;1.50;;;26.30;51.80;;;;;;5016082;28;20206;-73
2022/09/14 11:26:16;;;;;;;2.00;1.27;;;26.30;52.00;;;;;;5016260;28;20259;-74
2022/09/14 11:28:45;;;;;;;1.98;1.50;;;26.30;52.00;;;;;;5015353;28;20299;-72
2022/09/14 11:31:15;;;;;;;1.90;1.60;;;26.30;51.80;;;;;;5018661;28;20262;-73
2022/09/14 11:33:45;;;;;;;1.35;1.25;;;26.30;51.80;;;;;;5018983;28;20614;-73
2022/09/14 11:36:15;;;;;;;2.40;1.50;;;26.30;51.70;;;;;;5019708;28;20202;-74
2022/09/14 11:38:44;;;;;;;1.48;1.38;;;26.30;51.70;;;;;;5020034;28;20253;-73
2022/09/14 11:41:18;;;;;;;2.13;1.60;;;26.40;51.70;;;;;;5018763;28;20215;-72
2022/09/14 11:43:47;;;;;;;1.63;1.40;;;26.40;51.70;;;;;;5018743;28;20187;-73
2022/09/14 11:46:17;;;;;;;2.20;1.55;;;26.40;51.60;;;;;;5018706;28;20233;-73
2022/09/14 11:48:51;;;;;;;1.40;1.30;;;26.40;51.60;;;;;;5019498;28;20293;-73
2022/09/14 11:51:21;;;;;;;1.63;1.52;;;26.40;51.50;;;;;;5018547;28;20252;-73
2022/09/14 11:53:49;;;;;;;1.45;1.27;;;26.40;51.50;;;;;;5018502;28;20195;-74
2022/09/14 11:56:25;;;;;;;1.40;1.30;;;26.40;51.60;;;;;;5018440;28;20198;-73
2022/09/14 11:58:54;;;;;;;3.00;1.50;;;26.40;51.60;;;;;;5018623;28;20203;-74
2022/09/14 12:01:31;;;;;;;2.65;1.42;;;26.30;51.60;;;;;;5003745;28;20252;-73
2022/09/14 12:04:14;;;;;;;1.73;1.52;;;26.30;51.70;;;;;;4998892;28;20188;-74
2022/09/14 12:06:54;;;;;;;1.90;1.50;;;26.30;51.80;;;;;;4998701;28;20192;-74
2022/09/14 12:09:50;;;;;;;1.27;1.20;;;26.20;51.80;;;;;;4998890;28;20553;-73
2022/09/14 12:12:34;;;;;;;1.70;1.30;;;26.20;51.90;;;;;;4998689;28;20199;-73
2022/09/14 12:15:02;;;;;;;1.50;1.40;;;26.20;51.90;;;;;;4999528;28;20199;-74
2022/09/14 12:17:33;;;;;;;1.45;1.35;;;26.20;52.10;;;;;;4998492;28;20200;-74
2022/09/14 12:20:29;;;;;;;1.50;1.40;;;26.20;52.10;;;;;;4998552;28;20403;-74
2022/09/14 12:23:13;;;;;;;1.40;1.30;;;26.20;52.20;;;;;;4998458;28;20283;-73
2022/09/14 12:25:52;;;;;;;1.58;1.48;;;26.20;52.10;;;;;;4998499;28;20192;-72
2022/09/14 12:28:29;;;;;;;1.60;1.50;;;26.20;52.30;;;;;;5015872;28;20204;-74
2022/09/14 12:31:08;;;;;;;1.10;1.10;;;26.10;52.20;;;;;;4998261;28;20220;-72
2022/09/14 12:33:44;;;;;;;1.88;1.30;;;26.10;52.20;;;;;;4998495;28;20678;-73
2022/09/14 12:36:12;;;;;;;1.60;1.50;;;26.10;52.30;;;;;;5015812;28;20182;-74
2022/09/14 12:38:41;;;;;;;2.05;1.40;;;26.10;52.40;;;;;;4998165;28;20196;-74
2022/09/14 12:41:38;;;;;;;2.00;1.40;;;26.10;52.50;;;;;;4996957;28;20219;-73
2022/09/14 12:44:15;;;;;;;1.55;1.30;;;26.00;52.50;;;;;;4950728;28;20199;-73
2022/09/14 12:46:42;;;;;;;1.55;1.45;;;26.00;52.50;;;;;;4997895;28;20339;-73
2022/09/14 12:49:36;;;;;;;1.40;1.30;;;26.00;52.60;;;;;;4997864;28;20216;-74
2022/09/14 12:52:25;;;;;;;1.73;1.35;;;26.00;52.90;;;;;;5015743;28;20185;-73
2022/09/14 12:55:00;;;;;;;1.80;1.50;;;25.90;53.10;;;;;;4998096;28;20192;-72
2022/09/14 12:57:30;;;;;;;1.92;1.40;;;25.90;53.60;;;;;;4998495;28;20191;-74
2022/09/14 13:00:04;;;;;;;1.60;1.50;;;25.90;53.60;;;;;;5001920;28;20230;-73
2022/09/14 13:03:00;;;;;;;2.70;1.60;;;25.90;53.70;;;;;;5018459;28;20562;-74